Time;durP1;ratioP1;P1;durP2;ratioP2;P2;SDS_P1;SDS_P2;PMS_P1;PMS_P2;Temp;Humidity;BMP_temperature;BMP_pressure;BME280_temperature;BME280_humidity;BME280_pressure;Samples;Min_cycle;Max_cycle;Signal;HPM_P1;HPM_P2
2021/10/31 00:00:57;;;;;;;11.63;10.63;;;12.70;99.90;;;;;;6177180;23;20435;-91
2021/10/31 00:03:24;;;;;;;13.10;11.90;;;12.70;99.90;;;;;;6174683;23;20394;-90
2021/10/31 00:05:52;;;;;;;12.50;11.30;;;12.70;99.90;;;;;;6172982;23;20403;-90
2021/10/31 00:08:21;;;;;;;11.70;10.50;;;12.70;99.90;;;;;;6172214;23;20450;-89
2021/10/31 00:10:49;;;;;;;12.37;11.07;;;12.70;99.90;;;;;;6175427;23;20477;-90
2021/10/31 00:13:16;;;;;;;12.73;11.50;;;12.60;99.90;;;;;;6174201;23;20399;-90
2021/10/31 00:15:43;;;;;;;12.90;11.67;;;12.50;99.90;;;;;;6175483;23;20448;-89
2021/10/31 00:18:09;;;;;;;11.80;9.70;;;12.40;99.90;;;;;;6172058;23;20437;-91
2021/10/31 00:20:36;;;;;;;10.73;9.67;;;12.40;99.90;;;;;;6171926;23;20414;-89
2021/10/31 00:23:04;;;;;;;11.57;10.37;;;12.50;99.90;;;;;;6174961;23;20471;-89
2021/10/31 00:25:32;;;;;;;11.60;10.47;;;12.50;99.90;;;;;;6173825;23;20405;-89
2021/10/31 00:27:59;;;;;;;11.33;10.27;;;12.60;99.90;;;;;;6179529;23;20463;-90
2021/10/31 00:30:26;;;;;;;11.00;9.73;;;12.70;99.90;;;;;;6183514;23;20437;-92
2021/10/31 00:32:52;;;;;;;11.80;10.73;;;12.70;99.90;;;;;;6166407;23;20412;-89
2021/10/31 00:35:19;;;;;;;10.00;9.10;;;12.70;99.90;;;;;;6168745;23;20443;-89
2021/10/31 00:37:46;;;;;;;9.47;8.50;;;12.70;99.90;;;;;;6172891;23;20437;-89
2021/10/31 00:40:14;;;;;;;9.17;8.27;;;12.80;99.90;;;;;;6172513;23;20403;-90
2021/10/31 00:42:42;;;;;;;7.30;6.70;;;12.90;99.90;;;;;;6171774;23;20404;-89
2021/10/31 00:45:09;;;;;;;9.73;8.57;;;12.90;99.90;;;;;;6167721;23;20435;-90
2021/10/31 00:47:36;;;;;;;9.77;8.33;;;13.00;99.90;;;;;;6163123;23;20449;-89
2021/10/31 00:50:04;;;;;;;8.30;7.40;;;13.00;99.90;;;;;;6158845;23;20415;-89
2021/10/31 00:52:32;;;;;;;8.80;7.90;;;13.00;99.90;;;;;;6169775;23;20417;-89
2021/10/31 00:54:59;;;;;;;8.00;7.27;;;13.00;99.90;;;;;;6161416;23;20739;-89
2021/10/31 00:57:26;;;;;;;9.30;8.47;;;13.00;99.90;;;;;;6162222;23;20432;-89
2021/10/31 00:59:58;;;;;;;9.90;9.00;;;12.90;99.90;;;;;;6157028;23;20415;-89
2021/10/31 01:02:26;;;;;;;13.87;9.30;;;12.90;99.90;;;;;;6158124;23;20378;-89
2021/10/31 01:04:56;;;;;;;7.53;6.80;;;12.80;99.90;;;;;;6158087;23;21164;-89
2021/10/31 01:07:37;;;;;;;9.60;8.13;;;12.80;99.90;;;;;;6157093;23;20449;-89
2021/10/31 01:10:13;;;;;;;8.90;8.00;;;12.70;99.90;;;;;;6159028;23;20408;-89
2021/10/31 01:12:57;;;;;;;9.43;8.63;;;12.70;99.90;;;;;;6163261;23;20395;-89
2021/10/31 01:15:31;;;;;;;9.43;8.53;;;12.70;99.90;;;;;;6174753;23;20402;-88
2021/10/31 01:18:19;;;;;;;9.10;8.20;;;12.60;99.90;;;;;;6169339;23;20473;-89
2021/10/31 01:20:53;;;;;;;9.13;8.23;;;12.50;99.90;;;;;;6165133;23;20406;-88
2021/10/31 01:23:34;;;;;;;9.90;8.97;;;12.40;99.90;;;;;;6162029;23;20457;-89
2021/10/31 01:26:22;;;;;;;9.57;8.70;;;12.40;99.90;;;;;;6158410;23;20432;-88
2021/10/31 01:29:04;;;;;;;9.90;9.03;;;12.30;99.90;;;;;;6159438;23;20436;-89
2021/10/31 01:31:40;;;;;;;10.90;9.80;;;12.30;99.90;;;;;;6157603;23;20392;-89
2021/10/31 01:34:17;;;;;;;11.40;10.40;;;12.20;99.90;;;;;;6158875;23;20376;-88
2021/10/31 01:36:55;;;;;;;10.93;9.83;;;12.20;99.90;;;;;;6156662;23;20432;-89
2021/10/31 01:39:28;;;;;;;12.43;11.13;;;12.10;99.90;;;;;;6156766;23;20398;-88
2021/10/31 01:42:06;;;;;;;11.43;10.37;;;12.00;99.90;;;;;;6168956;23;20392;-89
2021/10/31 01:44:42;;;;;;;12.13;10.70;;;11.90;99.90;;;;;;6169309;23;20390;-89
2021/10/31 01:47:23;;;;;;;13.33;11.13;;;11.90;99.90;;;;;;6158496;23;20777;-89
2021/10/31 01:49:56;;;;;;;12.50;11.20;;;11.80;99.90;;;;;;6158610;23;20369;-89
2021/10/31 01:52:26;;;;;;;13.90;12.50;;;11.80;99.90;;;;;;6173140;23;20391;-89
2021/10/31 01:54:58;;;;;;;15.20;11.83;;;11.70;99.90;;;;;;6175915;23;20397;-89
2021/10/31 01:57:27;;;;;;;11.83;10.63;;;11.70;99.90;;;;;;6178270;23;20494;-89
2021/10/31 01:59:59;;;;;;;11.17;10.03;;;11.70;99.90;;;;;;6178337;23;20478;-89
2021/10/31 02:02:31;;;;;;;11.57;10.40;;;11.70;99.90;;;;;;6182832;23;20391;-89
2021/10/31 02:04:59;;;;;;;11.93;10.73;;;11.70;99.90;;;;;;6179338;23;20394;-89
2021/10/31 02:07:28;;;;;;;12.67;10.13;;;11.70;99.90;;;;;;6177806;23;20466;-89
2021/10/31 02:09:57;;;;;;;10.80;9.83;;;11.70;99.90;;;;;;6160767;23;20399;-90
2021/10/31 02:12:24;;;;;;;12.77;11.60;;;11.60;99.90;;;;;;6158741;23;20415;-89
2021/10/31 02:14:52;;;;;;;11.53;10.50;;;11.60;99.90;;;;;;6158225;23;20461;-89
2021/10/31 02:17:20;;;;;;;11.53;9.93;;;11.50;99.90;;;;;;6158076;23;20422;-89
2021/10/31 02:19:48;;;;;;;11.77;10.77;;;11.50;99.90;;;;;;6158969;23;20414;-90
2021/10/31 02:22:19;;;;;;;10.77;9.53;;;11.40;99.90;;;;;;6161504;23;20430;-89
2021/10/31 02:24:47;;;;;;;11.80;10.77;;;11.40;99.90;;;;;;6175449;23;20394;-89
2021/10/31 02:27:17;;;;;;;11.63;10.63;;;11.40;99.90;;;;;;6179623;23;20465;-90
2021/10/31 02:29:48;;;;;;;12.50;11.30;;;11.30;99.90;;;;;;6159383;23;20678;-89
2021/10/31 02:32:15;;;;;;;14.07;12.03;;;11.30;99.90;;;;;;6157808;23;20407;-89
2021/10/31 02:34:41;;;;;;;13.90;12.60;;;11.20;99.90;;;;;;6157881;23;20781;-89
2021/10/31 02:37:09;;;;;;;14.00;12.80;;;11.20;99.90;;;;;;6157686;23;20431;-89
2021/10/31 02:39:36;;;;;;;15.20;13.80;;;11.20;99.90;;;;;;6157414;23;20430;-91
2021/10/31 02:42:04;;;;;;;13.93;12.47;;;11.20;99.90;;;;;;6157902;23;20461;-89
2021/10/31 02:44:32;;;;;;;15.10;13.70;;;11.20;99.90;;;;;;6160240;23;20752;-89
2021/10/31 02:46:59;;;;;;;14.10;12.80;;;11.10;99.90;;;;;;6157713;23;20936;-89
2021/10/31 02:49:27;;;;;;;15.10;13.80;;;11.10;99.90;;;;;;6162267;23;20449;-90
2021/10/31 02:52:00;;;;;;;13.27;11.97;;;11.10;99.90;;;;;;6157391;23;20411;-89
2021/10/31 02:54:36;;;;;;;15.00;13.50;;;11.10;99.90;;;;;;6157118;23;20924;-89
2021/10/31 02:57:12;;;;;;;15.40;13.17;;;11.00;99.90;;;;;;6157043;23;20940;-90
2021/10/31 02:59:45;;;;;;;16.90;13.53;;;11.00;99.90;;;;;;6157171;23;20879;-90
2021/10/31 03:02:12;;;;;;;15.77;14.17;;;11.00;99.90;;;;;;6156919;23;20825;-89
2021/10/31 03:04:40;;;;;;;14.03;12.70;;;10.90;99.90;;;;;;6158216;23;20920;-90
2021/10/31 03:07:07;;;;;;;14.47;13.07;;;10.80;99.90;;;;;;6157823;23;20427;-89
2021/10/31 03:09:35;;;;;;;16.13;14.50;;;10.80;99.90;;;;;;6158540;23;20402;-89
2021/10/31 03:12:04;;;;;;;14.80;13.40;;;10.80;99.90;;;;;;6160108;23;20422;-89
2021/10/31 03:14:31;;;;;;;15.67;13.83;;;10.90;99.90;;;;;;6158583;23;20399;-89
2021/10/31 03:16:58;;;;;;;14.83;13.40;;;11.00;99.90;;;;;;6158349;23;20437;-89
2021/10/31 03:19:25;;;;;;;15.00;13.50;;;11.10;99.90;;;;;;6164407;23;20426;-90
2021/10/31 03:21:51;;;;;;;15.17;13.67;;;11.10;99.90;;;;;;6175830;23;20788;-89
2021/10/31 03:24:18;;;;;;;15.90;14.23;;;11.10;99.90;;;;;;6162403;23;20415;-89
2021/10/31 03:26:45;;;;;;;15.00;13.67;;;10.90;99.90;;;;;;6162883;23;20436;-89
2021/10/31 03:29:13;;;;;;;14.70;13.30;;;10.80;99.90;;;;;;6165708;23;20450;-89
2021/10/31 03:31:40;;;;;;;16.77;15.07;;;10.70;99.90;;;;;;6164250;23;20398;-89
2021/10/31 03:34:06;;;;;;;15.30;13.70;;;10.70;99.90;;;;;;6164182;23;20818;-89
2021/10/31 03:36:33;;;;;;;15.60;14.23;;;10.60;99.90;;;;;;6181993;23;20417;-89
2021/10/31 03:39:00;;;;;;;15.40;13.90;;;10.60;99.90;;;;;;6181657;23;20418;-89
2021/10/31 03:41:27;;;;;;;15.97;14.30;;;10.60;99.90;;;;;;6163765;23;20406;-89
2021/10/31 03:43:53;;;;;;;14.37;13.03;;;10.60;99.90;;;;;;6159778;23;20402;-89
2021/10/31 03:46:21;;;;;;;18.33;14.60;;;10.60;99.90;;;;;;6158203;23;20798;-90
2021/10/31 03:48:48;;;;;;;18.47;14.77;;;10.60;99.90;;;;;;6157160;23;20449;-89
2021/10/31 03:51:15;;;;;;;16.27;14.80;;;10.50;99.90;;;;;;6157581;23;20406;-89
2021/10/31 03:53:42;;;;;;;15.23;13.57;;;10.50;99.90;;;;;;6157637;23;20762;-90
2021/10/31 03:56:08;;;;;;;16.97;15.27;;;10.50;99.90;;;;;;6156952;23;20443;-90
2021/10/31 03:58:35;;;;;;;15.60;13.73;;;10.40;99.90;;;;;;6162151;23;20831;-90
2021/10/31 04:01:02;;;;;;;15.87;14.13;;;10.50;99.90;;;;;;6159624;23;20408;-91
2021/10/31 04:03:30;;;;;;;13.93;12.63;;;10.50;99.90;;;;;;6169097;23;20414;-90
2021/10/31 04:05:56;;;;;;;15.33;13.60;;;10.40;99.90;;;;;;6165106;23;20703;-89
2021/10/31 04:08:23;;;;;;;14.97;13.57;;;10.40;99.90;;;;;;6157717;23;20449;-90
2021/10/31 04:10:50;;;;;;;16.50;15.00;;;10.40;99.90;;;;;;6158781;23;20403;-89
2021/10/31 04:13:17;;;;;;;15.00;13.50;;;10.40;99.90;;;;;;6156688;23;20411;-89
2021/10/31 04:15:44;;;;;;;16.20;14.70;;;10.40;99.90;;;;;;6155594;23;20886;-89
2021/10/31 04:18:11;;;;;;;14.83;12.97;;;10.40;99.90;;;;;;6157484;23;20423;-89
2021/10/31 04:20:39;;;;;;;16.47;14.77;;;10.30;99.90;;;;;;6182038;23;20407;-89
2021/10/31 04:23:06;;;;;;;14.90;13.47;;;10.30;99.90;;;;;;6162387;23;20402;-89
2021/10/31 04:25:33;;;;;;;14.43;12.93;;;10.30;99.90;;;;;;6158473;23;20453;-89
2021/10/31 04:27:59;;;;;;;15.87;14.27;;;10.30;99.90;;;;;;6157587;23;20435;-90
2021/10/31 04:30:26;;;;;;;15.53;13.97;;;10.30;99.90;;;;;;6159056;23;20894;-89
2021/10/31 04:32:53;;;;;;;16.50;15.10;;;10.30;99.90;;;;;;6158615;23;20457;-90
2021/10/31 04:35:19;;;;;;;15.50;13.93;;;10.20;99.90;;;;;;6157748;23;20461;-89
2021/10/31 04:37:47;;;;;;;15.80;14.27;;;10.20;99.90;;;;;;6158519;23;20940;-89
2021/10/31 04:40:17;;;;;;;15.90;14.23;;;10.10;99.90;;;;;;6163190;23;20743;-88
2021/10/31 04:42:44;;;;;;;14.77;13.37;;;10.20;99.90;;;;;;6164951;23;20502;-89
2021/10/31 04:45:11;;;;;;;15.83;14.37;;;10.20;99.90;;;;;;6158882;23;20433;-89
2021/10/31 04:47:38;;;;;;;15.60;14.20;;;10.30;99.90;;;;;;6157793;23;20960;-89
2021/10/31 04:50:05;;;;;;;15.77;14.27;;;10.30;99.90;;;;;;6158430;23;20406;-89
2021/10/31 04:52:32;;;;;;;15.57;14.13;;;10.30;99.90;;;;;;6160577;23;20395;-89
2021/10/31 04:55:00;;;;;;;15.73;13.93;;;10.30;99.90;;;;;;6157985;23;20463;-89
2021/10/31 04:57:27;;;;;;;13.97;12.60;;;10.20;99.90;;;;;;6157264;23;20439;-89
2021/10/31 04:59:54;;;;;;;13.13;11.90;;;10.20;99.90;;;;;;6159965;23;20399;-89
2021/10/31 05:02:20;;;;;;;14.27;12.77;;;10.20;99.90;;;;;;6157377;23;20716;-90
2021/10/31 05:04:47;;;;;;;13.67;12.30;;;10.30;99.90;;;;;;6157690;23;20402;-90
2021/10/31 05:07:16;;;;;;;13.53;12.23;;;10.40;99.90;;;;;;6161403;23;20435;-90
2021/10/31 05:09:42;;;;;;;13.07;11.87;;;10.40;99.90;;;;;;6163989;23;20949;-89
2021/10/31 05:12:11;;;;;;;13.90;12.57;;;10.40;99.90;;;;;;6178775;23;20410;-89
2021/10/31 05:14:39;;;;;;;13.73;12.50;;;10.40;99.90;;;;;;6178855;23;20444;-89
2021/10/31 05:17:06;;;;;;;14.40;12.97;;;10.40;99.90;;;;;;6176798;23;20429;-90
2021/10/31 05:19:33;;;;;;;15.43;13.00;;;10.30;99.90;;;;;;6180250;23;20383;-90
2021/10/31 05:22:00;;;;;;;18.13;14.40;;;10.30;99.90;;;;;;6179696;23;20419;-89
2021/10/31 05:24:26;;;;;;;15.40;13.90;;;10.30;99.90;;;;;;6167018;23;20434;-91
2021/10/31 05:26:53;;;;;;;14.00;12.60;;;10.40;99.90;;;;;;6176623;23;20430;-90
2021/10/31 05:29:21;;;;;;;14.83;13.53;;;10.30;99.90;;;;;;6176874;23;20442;-91
2021/10/31 05:31:48;;;;;;;14.90;13.50;;;10.30;99.90;;;;;;6173808;23;20430;-90
2021/10/31 05:34:15;;;;;;;15.20;13.70;;;10.30;99.90;;;;;;6176723;23;20419;-90
2021/10/31 05:36:41;;;;;;;15.33;13.83;;;10.30;99.90;;;;;;6166150;23;20430;-90
2021/10/31 05:39:08;;;;;;;17.67;14.17;;;10.20;99.90;;;;;;6160779;23;20410;-90
2021/10/31 05:41:35;;;;;;;14.93;13.63;;;10.20;99.90;;;;;;6161589;23;20402;-90
2021/10/31 05:44:02;;;;;;;16.13;14.63;;;10.10;99.90;;;;;;6160977;23;20416;-90
2021/10/31 05:46:31;;;;;;;15.50;14.03;;;10.10;99.90;;;;;;6161230;23;20431;-90
2021/10/31 05:48:58;;;;;;;14.50;13.10;;;10.00;99.90;;;;;;6159886;23;20426;-89
2021/10/31 05:51:25;;;;;;;14.83;13.33;;;10.00;99.90;;;;;;6159617;23;20421;-89
2021/10/31 05:53:52;;;;;;;15.77;13.80;;;9.90;99.90;;;;;;6159996;23;20564;-88
2021/10/31 05:56:18;;;;;;;15.20;13.70;;;9.90;99.90;;;;;;6158361;23;20454;-89
2021/10/31 05:58:45;;;;;;;15.60;13.00;;;10.00;99.90;;;;;;6158897;23;20388;-89
2021/10/31 06:01:12;;;;;;;15.77;13.20;;;9.90;99.90;;;;;;6158856;23;20427;-89
2021/10/31 06:03:40;;;;;;;14.80;12.93;;;9.90;99.90;;;;;;6161974;23;20394;-88
2021/10/31 06:06:06;;;;;;;15.20;13.70;;;10.00;99.90;;;;;;6158815;23;20415;-88
2021/10/31 06:08:33;;;;;;;14.80;13.47;;;10.10;99.90;;;;;;6158811;23;20434;-89
2021/10/31 06:11:00;;;;;;;16.77;14.33;;;10.10;99.90;;;;;;6158429;23;20407;-89
2021/10/31 06:13:27;;;;;;;15.40;13.90;;;10.00;99.90;;;;;;6159227;23;20410;-88
2021/10/31 06:15:53;;;;;;;14.73;13.40;;;10.10;99.90;;;;;;6163873;23;20398;-89
2021/10/31 06:18:21;;;;;;;16.10;14.40;;;9.90;99.90;;;;;;6180197;23;20398;-89
2021/10/31 06:20:49;;;;;;;14.97;13.40;;;10.00;99.90;;;;;;6184476;23;20426;-89
2021/10/31 06:23:16;;;;;;;15.90;12.70;;;10.10;99.90;;;;;;6162058;23;20421;-89
2021/10/31 06:25:43;;;;;;;13.53;12.30;;;10.10;99.90;;;;;;6158841;23;20407;-88
2021/10/31 06:28:09;;;;;;;17.10;13.23;;;10.20;99.90;;;;;;6164452;23;20418;-88
2021/10/31 06:30:36;;;;;;;15.30;13.70;;;10.20;99.90;;;;;;6171451;23;20407;-88
2021/10/31 06:33:03;;;;;;;13.93;12.63;;;10.20;99.90;;;;;;6161109;23;20908;-90
2021/10/31 06:35:30;;;;;;;14.80;13.40;;;10.30;99.90;;;;;;6161641;23;20433;-89
2021/10/31 06:37:58;;;;;;;13.80;12.57;;;10.40;99.90;;;;;;6160161;23;20423;-89
2021/10/31 06:40:25;;;;;;;14.33;12.97;;;10.40;99.90;;;;;;6164855;23;20410;-89
2021/10/31 06:42:52;;;;;;;14.37;12.97;;;10.50;99.90;;;;;;6160408;23;20917;-89
2021/10/31 06:45:20;;;;;;;15.37;13.20;;;10.60;99.90;;;;;;6159444;23;20415;-88
2021/10/31 06:47:46;;;;;;;14.00;12.60;;;10.60;99.90;;;;;;6170130;23;20431;-88
2021/10/31 06:50:13;;;;;;;13.47;12.17;;;10.70;99.90;;;;;;6182970;23;20452;-89
2021/10/31 06:52:40;;;;;;;14.13;12.73;;;10.70;99.90;;;;;;6174799;23;20417;-89
2021/10/31 06:55:10;;;;;;;12.43;11.13;;;10.70;99.90;;;;;;6158493;23;20415;-89
2021/10/31 06:57:37;;;;;;;12.93;11.63;;;10.80;99.90;;;;;;6157691;23;20521;-89
2021/10/31 07:00:06;;;;;;;13.53;12.23;;;10.80;99.90;;;;;;6157612;23;20438;-89
2021/10/31 07:02:33;;;;;;;12.20;11.10;;;10.80;99.90;;;;;;6157941;23;20467;-90
2021/10/31 07:05:00;;;;;;;14.30;12.97;;;10.90;99.90;;;;;;6157858;23;20405;-89
2021/10/31 07:07:26;;;;;;;13.63;12.43;;;10.90;99.90;;;;;;6182954;23;20417;-90
2021/10/31 07:09:53;;;;;;;13.23;11.93;;;10.90;99.90;;;;;;6172328;23;20946;-90
2021/10/31 07:12:21;;;;;;;20.93;13.23;;;10.90;99.90;;;;;;6161683;23;20940;-89
2021/10/31 07:14:48;;;;;;;14.20;12.90;;;10.90;99.90;;;;;;6163149;23;20518;-90
2021/10/31 07:17:15;;;;;;;13.80;12.50;;;11.00;99.90;;;;;;6164439;23;20418;-90
2021/10/31 07:19:41;;;;;;;15.63;12.03;;;11.10;99.90;;;;;;6159500;23;20456;-90
2021/10/31 07:22:08;;;;;;;13.10;11.90;;;11.20;99.90;;;;;;6160556;23;20397;-89
2021/10/31 07:24:40;;;;;;;13.70;12.47;;;11.30;99.90;;;;;;6159429;23;20410;-90
2021/10/31 07:27:06;;;;;;;13.13;11.93;;;11.40;99.90;;;;;;6158035;23;20546;-90
2021/10/31 07:29:35;;;;;;;14.27;12.97;;;11.50;99.90;;;;;;6157946;23;20447;-90
2021/10/31 07:32:02;;;;;;;13.23;12.03;;;11.60;99.90;;;;;;6158933;23;20411;-90
2021/10/31 07:34:28;;;;;;;15.57;14.17;;;11.70;99.90;;;;;;6159100;23;20749;-90
2021/10/31 07:36:55;;;;;;;14.20;12.90;;;11.50;99.90;;;;;;6157733;23;20433;-91
2021/10/31 07:39:22;;;;;;;14.37;12.97;;;11.60;99.90;;;;;;6157449;23;20415;-90
2021/10/31 07:41:49;;;;;;;14.63;13.30;;;11.50;99.90;;;;;;6162368;23;20409;-90
2021/10/31 07:44:16;;;;;;;15.17;13.70;;;11.50;99.90;;;;;;6180581;23;20414;-91
2021/10/31 07:46:44;;;;;;;17.13;13.90;;;11.50;99.90;;;;;;6160706;23;20430;-89
2021/10/31 07:49:11;;;;;;;14.50;13.20;;;11.60;99.90;;;;;;6160406;23;20483;-89
2021/10/31 07:51:38;;;;;;;13.13;12.03;;;11.90;99.90;;;;;;6159122;23;20450;-90
2021/10/31 07:54:05;;;;;;;14.50;13.10;;;11.90;99.90;;;;;;6175772;23;20984;-90
2021/10/31 07:56:34;;;;;;;13.83;12.50;;;12.00;99.90;;;;;;6159258;23;20776;-94
2021/10/31 07:59:03;;;;;;;13.87;12.67;;;12.30;99.90;;;;;;6170893;23;20465;-90
2021/10/31 08:01:34;;;;;;;16.23;14.80;;;12.50;99.90;;;;;;6184416;23;20760;-90
2021/10/31 08:04:08;;;;;;;12.40;11.30;;;12.60;99.90;;;;;;6185387;23;20419;-90
2021/10/31 08:06:38;;;;;;;13.77;12.47;;;12.80;99.90;;;;;;6186843;23;20444;-90
2021/10/31 08:09:08;;;;;;;13.97;12.67;;;13.10;99.90;;;;;;6183395;23;20524;-91
2021/10/31 08:11:45;;;;;;;12.63;11.43;;;13.40;99.90;;;;;;6186307;23;20458;-91
2021/10/31 08:14:22;;;;;;;13.30;12.00;;;13.50;99.90;;;;;;6198156;23;20422;-90
2021/10/31 08:16:51;;;;;;;12.57;11.50;;;13.70;99.90;;;;;;6202157;23;20410;-91
2021/10/31 08:19:24;;;;;;;12.10;11.00;;;13.90;99.90;;;;;;6193528;23;20528;-91
2021/10/31 08:21:52;;;;;;;12.17;10.97;;;14.10;99.90;;;;;;6185988;23;20877;-78
2021/10/31 08:24:20;;;;;;;13.30;10.27;;;14.20;99.90;;;;;;6184333;23;20396;-78
2021/10/31 08:26:47;;;;;;;11.03;10.03;;;14.50;99.90;;;;;;6182081;23;20448;-77
2021/10/31 08:29:18;;;;;;;11.23;10.03;;;14.50;99.90;;;;;;6185732;23;20450;-77
2021/10/31 08:31:49;;;;;;;10.17;9.47;;;14.40;99.90;;;;;;6185113;23;20396;-77
2021/10/31 08:34:18;;;;;;;11.63;10.40;;;14.30;99.90;;;;;;6189465;23;20417;-77
2021/10/31 08:36:47;;;;;;;11.27;10.27;;;14.10;99.90;;;;;;6184595;23;20789;-77
2021/10/31 08:39:13;;;;;;;10.90;9.90;;;14.10;99.90;;;;;;6185036;23;20432;-76
2021/10/31 08:41:40;;;;;;;9.70;8.90;;;14.20;99.90;;;;;;6182870;23;20427;-76
2021/10/31 08:44:28;;;;;;;9.70;8.90;;;14.20;99.90;;;;;;6204828;23;20456;-86
2021/10/31 08:47:01;;;;;;;10.20;9.20;;;14.20;99.90;;;;;;6207514;23;20461;-90
2021/10/31 08:49:35;;;;;;;9.30;8.50;;;14.20;99.90;;;;;;6203906;23;20465;-90
2021/10/31 08:52:24;;;;;;;10.23;9.30;;;14.30;99.90;;;;;;6206436;23;20884;-90
2021/10/31 08:55:10;;;;;;;10.37;9.33;;;14.40;99.90;;;;;;6196076;23;20417;-91
2021/10/31 08:57:41;;;;;;;9.63;8.73;;;14.40;99.90;;;;;;6193242;23;20416;-90
2021/10/31 09:00:09;;;;;;;9.40;8.40;;;14.50;99.90;;;;;;6202095;23;20424;-89
2021/10/31 09:03:05;;;;;;;10.03;9.20;;;14.40;99.90;;;;;;6212607;23;20427;-87
2021/10/31 09:05:44;;;;;;;10.00;9.00;;;14.30;99.90;;;;;;6213936;23;20401;-89
2021/10/31 09:11:42;;;;;;;8.67;7.87;;;14.60;99.90;;;;;;6213224;23;20357;-90
2021/10/31 09:19:55;;;;;;;8.50;7.90;;;15.70;99.90;;;;;;6210520;23;20418;-89
2021/10/31 09:22:32;;;;;;;8.20;7.40;;;15.90;99.90;;;;;;6210068;23;20510;-90
2021/10/31 09:27:58;;;;;;;8.37;7.53;;;16.10;99.90;;;;;;6176736;23;20452;-90
2021/10/31 09:31:05;;;;;;;9.20;8.33;;;16.00;99.90;;;;;;6191757;23;20437;-91
2021/10/31 09:33:48;;;;;;;9.37;8.50;;;15.60;99.90;;;;;;6195238;23;20408;-92
2021/10/31 09:36:24;;;;;;;8.53;7.83;;;15.70;99.90;;;;;;6200599;23;20790;-90
2021/10/31 09:39:23;;;;;;;9.57;8.67;;;15.70;99.90;;;;;;6194154;23;20426;-90
2021/10/31 09:41:55;;;;;;;8.33;7.63;;;15.90;99.90;;;;;;6210036;23;20409;-90
2021/10/31 09:44:32;;;;;;;8.20;7.50;;;16.30;99.90;;;;;;6209366;23;20402;-90
2021/10/31 09:47:02;;;;;;;9.23;8.50;;;16.80;99.90;;;;;;6211390;23;20393;-90
2021/10/31 09:49:40;;;;;;;7.73;7.03;;;17.50;99.90;;;;;;6205684;23;20450;-91
2021/10/31 09:52:20;;;;;;;8.80;7.50;;;17.70;99.90;;;;;;6200453;23;20485;-90
2021/10/31 09:54:59;;;;;;;8.23;7.00;;;17.90;99.90;;;;;;6194252;23;20845;-89
2021/10/31 09:57:32;;;;;;;8.17;7.43;;;17.90;99.90;;;;;;6189537;23;20422;-88
2021/10/31 10:03:38;;;;;;;8.33;7.53;;;18.50;99.90;;;;;;6204802;23;20477;-88
2021/10/31 10:06:21;;;;;;;8.23;7.53;;;19.70;98.30;;;;;;6191288;23;20431;-88
2021/10/31 10:09:11;;;;;;;8.50;7.80;;;20.40;96.50;;;;;;6200336;23;20534;-90
2021/10/31 10:11:40;;;;;;;7.63;6.93;;;21.30;94.50;;;;;;6187254;23;20437;-89
2021/10/31 10:14:19;;;;;;;6.70;6.20;;;22.80;93.30;;;;;;6186348;23;20421;-90
2021/10/31 10:16:50;;;;;;;7.50;6.77;;;24.00;90.60;;;;;;6187054;23;20457;-90
2021/10/31 10:19:31;;;;;;;6.97;6.37;;;25.60;83.90;;;;;;6186961;23;20521;-90
2021/10/31 10:22:22;;;;;;;6.83;6.30;;;25.80;78.30;;;;;;6203471;23;20370;-90
2021/10/31 10:24:54;;;;;;;5.80;5.30;;;27.00;75.70;;;;;;6213290;23;20394;-89
2021/10/31 10:27:36;;;;;;;6.50;5.90;;;27.10;70.50;;;;;;6187217;23;20421;-90
2021/10/31 10:30:18;;;;;;;5.83;5.33;;;27.30;70.90;;;;;;6213785;23;20405;-88
2021/10/31 10:32:50;;;;;;;6.37;5.87;;;28.10;67.90;;;;;;6201781;23;21133;-84
2021/10/31 10:35:19;;;;;;;4.70;4.30;;;28.10;66.00;;;;;;6188168;23;20409;-80
2021/10/31 10:37:50;;;;;;;6.80;5.60;;;28.60;63.70;;;;;;6188766;23;20391;-80
2021/10/31 10:40:23;;;;;;;5.50;5.10;;;28.60;62.30;;;;;;6185436;23;20488;-80
2021/10/31 10:42:52;;;;;;;5.57;5.10;;;28.20;62.10;;;;;;6187793;23;20398;-79
2021/10/31 10:45:21;;;;;;;5.20;4.90;;;28.80;62.60;;;;;;6187290;23;20747;-77
2021/10/31 10:47:49;;;;;;;5.50;5.10;;;29.40;59.00;;;;;;6185087;23;20781;-77
2021/10/31 10:50:18;;;;;;;5.60;5.17;;;29.90;60.30;;;;;;6184347;23;20404;-77
2021/10/31 10:52:47;;;;;;;6.00;5.50;;;29.80;58.10;;;;;;6184582;23;20409;-80
2021/10/31 10:55:16;;;;;;;5.63;5.13;;;30.40;57.70;;;;;;6184892;23;20430;-79
2021/10/31 10:57:46;;;;;;;5.70;5.30;;;30.40;56.40;;;;;;6186550;23;20918;-90
2021/10/31 11:00:21;;;;;;;5.50;5.10;;;31.00;55.30;;;;;;6198231;23;20474;-89
2021/10/31 11:05:38;;;;;;;4.40;4.10;;;32.20;53.50;;;;;;6204621;23;20478;-89
2021/10/31 11:08:13;;;;;;;4.77;4.30;;;30.90;53.90;;;;;;6208788;23;20445;-89
2021/10/31 11:10:45;;;;;;;5.23;4.83;;;30.50;54.30;;;;;;6205704;23;20398;-89
2021/10/31 11:13:16;;;;;;;5.20;4.40;;;31.30;54.20;;;;;;6194616;23;20382;-89
2021/10/31 11:15:43;;;;;;;4.23;3.80;;;32.20;53.10;;;;;;6191280;23;20426;-90
2021/10/31 11:18:19;;;;;;;3.70;3.40;;;32.10;50.90;;;;;;6190751;23;20504;-89
2021/10/31 11:20:48;;;;;;;4.23;3.60;;;31.10;51.30;;;;;;6193898;23;20433;-90
2021/10/31 11:23:29;;;;;;;3.90;3.50;;;30.70;52.20;;;;;;6207823;23;20402;-89
2021/10/31 11:26:03;;;;;;;3.93;3.63;;;30.10;52.60;;;;;;6212347;23;20386;-88
2021/10/31 11:28:31;;;;;;;3.80;3.50;;;29.70;53.80;;;;;;6211339;23;20468;-89
2021/10/31 11:31:03;;;;;;;3.70;3.50;;;29.50;53.90;;;;;;6208764;23;20394;-90
2021/10/31 11:33:31;;;;;;;3.90;3.53;;;28.60;55.00;;;;;;6192957;23;20457;-89
2021/10/31 11:36:05;;;;;;;3.93;3.60;;;29.40;55.40;;;;;;6189465;23;20461;-88
2021/10/31 11:38:40;;;;;;;16.07;14.70;;;29.60;53.70;;;;;;6201537;23;20425;-89
2021/10/31 11:41:09;;;;;;;3.63;3.23;;;30.20;53.10;;;;;;6211122;23;20446;-91
2021/10/31 11:43:39;;;;;;;3.60;3.30;;;30.30;52.80;;;;;;6195426;23;20421;-90
2021/10/31 11:46:07;;;;;;;3.50;3.20;;;30.00;52.30;;;;;;6191057;23;20736;-91
2021/10/31 11:48:36;;;;;;;4.00;3.20;;;29.40;53.00;;;;;;6189259;23;20838;-91
2021/10/31 11:51:10;;;;;;;4.00;3.70;;;28.90;53.90;;;;;;6189534;23;20394;-91
2021/10/31 11:53:42;;;;;;;3.77;3.47;;;29.20;53.40;;;;;;6188932;23;20454;-92
2021/10/31 11:56:17;;;;;;;3.90;3.47;;;30.20;52.30;;;;;;6165872;23;20489;-91
2021/10/31 11:58:58;;;;;;;3.43;3.23;;;30.60;51.20;;;;;;6170686;23;20415;-92
2021/10/31 12:01:35;;;;;;;3.77;3.47;;;31.40;49.70;;;;;;6176076;23;20441;-90
2021/10/31 12:04:04;;;;;;;5.13;4.63;;;31.10;49.70;;;;;;6182741;23;20493;-90
2021/10/31 12:06:50;;;;;;;3.20;2.90;;;31.10;49.10;;;;;;6176964;23;20408;-91
2021/10/31 12:09:28;;;;;;;4.70;3.93;;;30.70;48.90;;;;;;6179309;23;20758;-91
2021/10/31 12:12:13;;;;;;;3.57;3.27;;;30.30;49.40;;;;;;6175629;23;20474;-91
2021/10/31 12:14:58;;;;;;;3.10;2.80;;;29.70;49.80;;;;;;6183554;23;20503;-90
2021/10/31 12:18:03;;;;;;;4.60;3.33;;;29.50;51.40;;;;;;6184111;23;20411;-91
2021/10/31 12:20:52;;;;;;;2.70;2.50;;;29.90;49.50;;;;;;6163397;23;20438;-91
2021/10/31 12:23:23;;;;;;;3.00;2.80;;;29.30;49.00;;;;;;6161304;23;20901;-91
2021/10/31 12:25:54;;;;;;;3.33;3.03;;;29.40;49.90;;;;;;6161112;23;20469;-92
2021/10/31 12:28:40;;;;;;;2.27;2.17;;;29.90;49.50;;;;;;6172114;23;20462;-91
2021/10/31 12:31:31;;;;;;;2.27;2.07;;;29.50;49.80;;;;;;6175347;23;20381;-92
2021/10/31 12:34:25;;;;;;;2.90;2.70;;;28.90;49.80;;;;;;6183332;23;20466;-90
2021/10/31 12:36:56;;;;;;;3.07;2.80;;;28.80;49.70;;;;;;6145698;23;20423;-91
2021/10/31 12:39:55;;;;;;;3.40;3.07;;;27.70;49.90;;;;;;6167903;23;20458;-90
2021/10/31 12:42:25;;;;;;;4.07;3.60;;;26.30;52.70;;;;;;6175935;23;20490;-90
2021/10/31 12:44:56;;;;;;;3.90;3.40;;;26.30;54.10;;;;;;6160745;23;20925;-90
2021/10/31 12:47:25;;;;;;;3.70;3.00;;;26.00;52.70;;;;;;6158351;23;20398;-90
2021/10/31 12:50:18;;;;;;;5.07;3.13;;;25.60;53.70;;;;;;6158669;23;20466;-90
2021/10/31 12:52:49;;;;;;;2.90;2.60;;;25.40;53.70;;;;;;6163126;23;20896;-90
2021/10/31 12:55:21;;;;;;;4.23;2.60;;;24.80;54.70;;;;;;6158621;23;20426;-89
2021/10/31 12:57:54;;;;;;;3.30;2.67;;;24.60;55.80;;;;;;6158258;23;20387;-88
2021/10/31 13:00:21;;;;;;;2.50;2.20;;;24.80;55.40;;;;;;6156644;23;20478;-91
2021/10/31 13:02:50;;;;;;;3.57;3.00;;;25.30;54.70;;;;;;6157019;23;20406;-88
2021/10/31 13:05:23;;;;;;;2.13;2.03;;;26.30;53.90;;;;;;6160774;23;20788;-90
2021/10/31 13:07:52;;;;;;;3.03;2.70;;;26.60;52.90;;;;;;6165033;23;20395;-91
2021/10/31 13:10:22;;;;;;;3.53;2.80;;;26.30;52.30;;;;;;6166094;23;20894;-88
2021/10/31 13:12:50;;;;;;;2.87;2.67;;;26.10;52.30;;;;;;6179822;23;20398;-89